Watts Bar Observed Data For Previous 48 Hours

Caption
Day and Hour Reservoir Elevation (behind dam)* Tailwater Elevation (below dam)* Average Hourly Discharge*
6/20/2018 2 AM EDT 740.71 682.49 9,949
6/20/2018 3 AM EDT 740.72 682.48 10,011
6/20/2018 4 AM EDT 740.66 682.29 9,996
6/20/2018 5 AM EDT 740.61 682.13 10,021
6/20/2018 6 AM EDT 740.59 682.08 10,012
6/20/2018 7 AM EDT 740.60 682.10 10,003
6/20/2018 8 AM EDT 740.61 682.19 10,002
6/20/2018 9 AM EDT 740.62 682.29 9,970
6/20/2018 10 AM EDT 740.63 682.34 10,005
6/20/2018 11 AM EDT 740.61 682.32 10,020
6/20/2018 12 PM EDT 740.54 682.24 10,221
6/20/2018 1 PM EDT 740.51 682.57 19,668
6/20/2018 2 PM EDT 740.57 682.59 19,943
6/20/2018 3 PM EDT 740.60 682.49 19,967
6/20/2018 4 PM EDT 740.52 684.12 44,973
6/20/2018 5 PM EDT 740.51 684.25 47,365
6/20/2018 6 PM EDT 740.51 684.29 47,408
6/20/2018 7 PM EDT 740.47 684.23 47,444
6/20/2018 8 PM EDT 740.49 684.15 47,491
6/20/2018 9 PM EDT 740.63 681.96 19,994
6/20/2018 10 PM EDT 740.66 681.65 10,038
6/20/2018 11 PM EDT 740.64 681.71 10,080
6/21/2018 12 AM EDT 740.65 681.99 10,045
6/21/2018 1 AM EDT 740.60 682.20 10,018
6/21/2018 2 AM EDT 740.61 682.30 10,018
6/21/2018 3 AM EDT 740.66 682.33 9,993
6/21/2018 4 AM EDT 740.65 682.21 9,972
6/21/2018 5 AM EDT 740.62 682.00 9,975
6/21/2018 6 AM EDT 740.59 681.93 9,992
6/21/2018 7 AM EDT 740.57 682.03 10,034
6/21/2018 8 AM EDT 740.57 682.16 10,001
6/21/2018 9 AM EDT 740.56 682.23 9,978
6/21/2018 10 AM EDT 740.54 682.34 10,098
6/21/2018 11 AM EDT 740.55 682.47 14,868
6/21/2018 12 PM EDT 740.51 682.51 15,143
6/21/2018 1 PM EDT 740.48 682.69 20,032
6/21/2018 2 PM EDT 740.49 682.88 24,811
6/21/2018 3 PM EDT 740.39 683.56 27,293
6/21/2018 4 PM EDT 740.41 684.11 47,119
6/21/2018 5 PM EDT 740.46 684.19 47,370
6/21/2018 6 PM EDT 740.44 684.20 47,375
6/21/2018 7 PM EDT 740.40 684.21 47,350
6/21/2018 8 PM EDT 740.50 682.82 25,883
6/21/2018 9 PM EDT 740.55 682.27 20,385
6/21/2018 10 PM EDT 740.56 681.86 15,426
6/21/2018 11 PM EDT 740.57 681.65 10,449
6/22/2018 12 AM EDT 740.54 681.79 10,180
6/22/2018 1 AM EDT 740.57 681.95 10,141

Elevations are in feet above sea level. Discharges are in cubic feet per second and are reported at the end of the hour.